createdAt,value
2022-10-18T00:02:02.930Z,102576.91
2022-10-18T00:04:29.322Z,102578.91
2022-10-18T00:06:55.837Z,102565.28
2022-10-18T00:09:22.228Z,102573.19
2022-10-18T00:11:48.526Z,102576.63
2022-10-18T00:14:14.875Z,102571.00
2022-10-18T00:16:41.256Z,102561.25
2022-10-18T00:19:07.582Z,102566.78
2022-10-18T00:21:34.054Z,102565.53
2022-10-18T00:24:00.461Z,102564.50
2022-10-18T00:26:28.666Z,102575.31
2022-10-18T00:28:57.534Z,102562.69
2022-10-18T00:31:29.412Z,102572.88
2022-10-18T00:33:58.797Z,102575.94
2022-10-18T00:36:26.898Z,102578.59
2022-10-18T00:38:53.601Z,102582.41
2022-10-18T00:41:23.013Z,102581.34
2022-10-18T00:43:57.977Z,102577.69
2022-10-18T00:46:26.386Z,102582.78
2022-10-18T00:51:31.811Z,102584.38
2022-10-18T00:53:58.682Z,102568.91
2022-10-18T00:56:25.740Z,102576.63
2022-10-18T00:58:52.567Z,102581.28
2022-10-18T01:01:19.009Z,102578.81
2022-10-18T01:03:45.471Z,102572.28
2022-10-18T01:06:11.830Z,102585.75
2022-10-18T01:09:18.787Z,102583.47
2022-10-18T01:12:03.096Z,102579.41
2022-10-18T01:14:46.338Z,102575.28
2022-10-18T01:17:28.003Z,102569.28
2022-10-18T01:20:12.722Z,102579.47
2022-10-18T01:22:56.406Z,102570.97
2022-10-18T01:25:50.301Z,102561.63
2022-10-18T01:28:39.319Z,102583.34
2022-10-18T01:31:23.246Z,102577.94
2022-10-18T01:33:54.982Z,102578.50
2022-10-18T01:36:27.367Z,102596.56
2022-10-18T01:38:57.431Z,102586.31
2022-10-18T01:41:25.472Z,102588.78
2022-10-18T01:43:58.326Z,102586.06
2022-10-18T01:46:25.769Z,102594.63
2022-10-18T01:48:53.458Z,102599.44
2022-10-18T01:51:24.851Z,102588.00
2022-10-18T01:53:51.245Z,102579.75
2022-10-18T01:56:59.007Z,102591.28
2022-10-18T01:59:56.492Z,102587.13
2022-10-18T02:02:49.938Z,102581.50
2022-10-18T02:05:38.443Z,102584.94
2022-10-18T02:08:22.780Z,102579.41
2022-10-18T02:10:56.607Z,102587.38
2022-10-18T02:13:25.625Z,102587.78
2022-10-18T02:15:59.312Z,102597.28
2022-10-18T02:18:32.546Z,102590.94
2022-10-18T02:21:01.321Z,102600.47
2022-10-18T02:23:27.822Z,102582.44
2022-10-18T02:25:54.387Z,102590.00
2022-10-18T02:28:21.751Z,102583.09
2022-10-18T02:31:05.911Z,102590.16
2022-10-18T02:33:32.109Z,102596.88
2022-10-18T02:36:06.059Z,102587.91
2022-10-18T02:38:33.142Z,102600.72
2022-10-18T02:40:59.569Z,102595.53
2022-10-18T02:43:26.583Z,102588.81
2022-10-18T02:45:53.205Z,102591.63
2022-10-18T02:48:19.485Z,102593.91
2022-10-18T02:50:45.802Z,102580.78
2022-10-18T02:53:12.123Z,102575.09
2022-10-18T02:55:38.453Z,102570.72
2022-10-18T02:58:04.762Z,102585.16
2022-10-18T03:00:31.090Z,102590.59
2022-10-18T03:02:57.401Z,102581.75
2022-10-18T03:05:23.759Z,102581.97
2022-10-18T03:07:50.070Z,102581.13
2022-10-18T03:10:16.515Z,102577.69
2022-10-18T03:12:42.854Z,102588.50
2022-10-18T03:15:09.614Z,102578.78
2022-10-18T03:17:35.915Z,102584.69
2022-10-18T03:20:02.311Z,102578.97
2022-10-18T03:24:59.819Z,102584.22
2022-10-18T03:27:26.132Z,102588.38
2022-10-18T03:29:52.431Z,102603.00
2022-10-18T03:32:18.780Z,102608.63
2022-10-18T03:34:45.146Z,102590.91
2022-10-18T03:37:11.482Z,102596.91
2022-10-18T03:39:37.777Z,102594.75
2022-10-18T03:42:04.197Z,102589.84
2022-10-18T03:44:30.522Z,102585.56
2022-10-18T03:46:56.845Z,102599.28
2022-10-18T03:49:23.222Z,102592.75
2022-10-18T03:51:49.562Z,102595.03
2022-10-18T03:54:15.925Z,102596.97
2022-10-18T03:56:42.237Z,102611.56
2022-10-18T03:59:08.533Z,102608.94
2022-10-18T04:01:34.968Z,102593.69
2022-10-18T04:04:01.339Z,102604.31
2022-10-18T04:06:27.636Z,102597.44
2022-10-18T04:08:54.937Z,102589.06
2022-10-18T04:11:21.283Z,102594.97
2022-10-18T04:13:47.569Z,102609.09
2022-10-18T04:16:13.882Z,102595.31
2022-10-18T04:18:40.264Z,102591.22
2022-10-18T04:21:06.626Z,102592.41
2022-10-18T04:23:36.314Z,102589.78
2022-10-18T04:26:05.016Z,102592.25
2022-10-18T04:28:36.908Z,102590.97
2022-10-18T04:31:03.301Z,102593.59
2022-10-18T04:33:29.626Z,102599.50
2022-10-18T04:35:56.106Z,102595.75
2022-10-18T04:38:22.494Z,102597.56
2022-10-18T04:40:48.834Z,102602.00
2022-10-18T04:43:15.570Z,102598.41
2022-10-18T04:45:42.118Z,102593.84
2022-10-18T04:48:08.450Z,102586.28
2022-10-18T04:50:34.733Z,102593.84
2022-10-18T04:53:01.028Z,102594.19
2022-10-18T04:55:27.366Z,102591.22
2022-10-18T04:57:53.753Z,102583.31
2022-10-18T05:00:20.216Z,102577.75
2022-10-18T05:02:46.564Z,102572.41
2022-10-18T05:05:14.169Z,102574.50
2022-10-18T05:07:40.913Z,102581.09
2022-10-18T05:10:07.904Z,102574.09
2022-10-18T05:12:34.627Z,102580.53
2022-10-18T05:15:01.258Z,102588.88
2022-10-18T05:17:27.597Z,102587.59
2022-10-18T05:19:53.886Z,102602.84
2022-10-18T05:22:20.195Z,102606.47
2022-10-18T05:24:46.520Z,102602.56
2022-10-18T05:27:12.823Z,102599.41
2022-10-18T05:29:39.158Z,102587.47
2022-10-18T05:32:05.511Z,102609.47
2022-10-18T05:34:31.889Z,102613.78
2022-10-18T05:36:59.161Z,102626.94
2022-10-18T05:39:25.554Z,102602.84
2022-10-18T05:41:51.873Z,102618.75
2022-10-18T05:44:18.196Z,102613.19
2022-10-18T05:46:44.534Z,102620.44
2022-10-18T05:49:13.885Z,102629.97
2022-10-18T05:51:40.194Z,102620.00
2022-10-18T05:54:06.572Z,102645.50
2022-10-18T05:56:32.975Z,102636.66
2022-10-18T05:58:59.333Z,102643.06
2022-10-18T06:01:25.675Z,102642.78
2022-10-18T06:03:51.976Z,102655.72
2022-10-18T06:06:18.300Z,102653.16
2022-10-18T06:08:44.660Z,102670.56
2022-10-18T06:11:14.568Z,102666.47
2022-10-18T06:13:48.450Z,102671.41
2022-10-18T06:16:17.110Z,102678.97
2022-10-18T06:18:43.627Z,102667.78
2022-10-18T06:21:10.117Z,102674.03
2022-10-18T06:23:36.462Z,102682.59
2022-10-18T06:26:05.582Z,102694.41
2022-10-18T06:28:35.124Z,102694.44
2022-10-18T06:31:01.797Z,102685.09
2022-10-18T06:33:28.152Z,102692.97
2022-10-18T06:35:59.859Z,102691.47
2022-10-18T06:38:27.008Z,102698.69
2022-10-18T06:40:53.906Z,102691.31
2022-10-18T06:43:21.635Z,102700.88
2022-10-18T06:45:48.925Z,102711.84
2022-10-18T06:48:15.599Z,102705.25
2022-10-18T06:50:42.136Z,102699.19
2022-10-18T06:53:08.572Z,102702.47
2022-10-18T06:55:35.240Z,102720.84
2022-10-18T06:58:01.984Z,102719.88
2022-10-18T07:00:28.434Z,102712.00
2022-10-18T07:02:54.793Z,102713.13
2022-10-18T07:05:21.167Z,102708.34
2022-10-18T07:07:47.523Z,102722.56
2022-10-18T07:10:13.809Z,102719.78
2022-10-18T07:12:40.098Z,102726.78
2022-10-18T07:15:09.304Z,102722.81
2022-10-18T07:17:35.956Z,102725.56
2022-10-18T07:20:02.458Z,102728.81
2022-10-18T07:22:30.346Z,102742.91
2022-10-18T07:24:56.827Z,102748.50
2022-10-18T07:27:23.209Z,102754.72
2022-10-18T07:29:49.705Z,102754.72
2022-10-18T07:32:16.038Z,102750.63
2022-10-18T07:34:42.353Z,102745.16
2022-10-18T07:37:08.714Z,102755.22
2022-10-18T07:39:35.014Z,102751.06
2022-10-18T07:42:01.358Z,102779.09
2022-10-18T07:44:27.687Z,102780.53
2022-10-18T07:46:53.995Z,102771.22
2022-10-18T07:49:20.426Z,102771.25
2022-10-18T07:51:46.835Z,102768.63
2022-10-18T07:54:13.178Z,102775.03
2022-10-18T07:56:39.472Z,102774.50
2022-10-18T07:59:05.848Z,102781.13
2022-10-18T08:01:32.159Z,102789.31
2022-10-18T08:04:01.048Z,102770.78
2022-10-18T08:06:29.684Z,102788.41
2022-10-18T08:08:56.254Z,102783.31
2022-10-18T08:11:24.486Z,102773.75
2022-10-18T08:13:52.580Z,102782.94
2022-10-18T08:16:21.681Z,102796.09
2022-10-18T08:18:48.757Z,102793.28
2022-10-18T08:21:16.790Z,102801.69
2022-10-18T08:23:43.537Z,102790.72
2022-10-18T08:26:13.059Z,102808.91
2022-10-18T08:28:39.765Z,102789.06
2022-10-18T08:31:10.665Z,102783.34
2022-10-18T08:33:37.256Z,102799.28
2022-10-18T08:36:06.007Z,102800.03
2022-10-18T08:38:36.440Z,102803.34
2022-10-18T08:41:19.711Z,102808.84
2022-10-18T08:44:07.207Z,102814.25
2022-10-18T08:46:36.357Z,102806.16
2022-10-18T08:49:05.485Z,102794.81
2022-10-18T08:51:45.133Z,102792.53
2022-10-18T08:54:20.945Z,102796.09
2022-10-18T08:56:59.700Z,102812.47
2022-10-18T08:59:28.977Z,102810.34
2022-10-18T09:02:10.594Z,102802.00
2022-10-18T09:04:45.781Z,102790.56
2022-10-18T09:07:36.748Z,102799.31
2022-10-18T09:10:09.545Z,102812.72
2022-10-18T09:12:38.877Z,102810.44
2022-10-18T09:15:20.356Z,102806.25
2022-10-18T09:18:06.893Z,102804.19
2022-10-18T09:21:17.308Z,102815.53
2022-10-18T09:23:58.484Z,102809.78
2022-10-18T09:26:25.550Z,102803.69
2022-10-18T09:29:29.370Z,102809.38
2022-10-18T09:32:14.085Z,102809.03
2022-10-18T09:35:03.089Z,102799.97
2022-10-18T09:37:33.247Z,102791.19
2022-10-18T09:40:19.865Z,102798.09
2022-10-18T09:42:55.651Z,102808.53
2022-10-18T09:45:30.858Z,102813.06
2022-10-18T09:48:28.113Z,102814.13
2022-10-18T09:51:11.269Z,102821.19
2022-10-18T09:53:54.381Z,102816.94
2022-10-18T09:56:44.168Z,102821.25
2022-10-18T09:59:17.358Z,102825.66
2022-10-18T10:01:43.659Z,102818.38
2022-10-18T10:04:09.975Z,102804.53
2022-10-18T10:06:36.758Z,102816.72
2022-10-18T10:09:14.197Z,102821.38
2022-10-18T10:11:48.650Z,102820.75
2022-10-18T10:14:17.988Z,102830.59
2022-10-18T10:16:59.291Z,102831.19
2022-10-18T10:19:40.060Z,102842.16
2022-10-18T10:22:10.278Z,102829.25
2022-10-18T10:24:50.347Z,102839.19
2022-10-18T10:27:22.022Z,102845.69
2022-10-18T10:29:51.912Z,102844.53
2022-10-18T10:32:21.232Z,102852.78
2022-10-18T10:34:47.640Z,102846.34
2022-10-18T10:37:22.803Z,102854.25
2022-10-18T10:40:20.481Z,102869.75
2022-10-18T10:43:08.920Z,102858.47
2022-10-18T10:45:58.854Z,102862.00
2022-10-18T10:48:29.901Z,102857.13
2022-10-18T10:51:03.098Z,102852.22
2022-10-18T10:53:41.418Z,102851.69
2022-10-18T10:56:23.498Z,102845.97
2022-10-18T10:58:51.328Z,102849.69
2022-10-18T11:01:24.572Z,102853.72
2022-10-18T11:03:53.759Z,102848.78
2022-10-18T11:06:57.153Z,102851.19
2022-10-18T11:09:45.117Z,102870.53
2022-10-18T11:12:21.917Z,102862.56
2022-10-18T11:14:55.869Z,102862.06
2022-10-18T11:17:39.743Z,102861.91
2022-10-18T11:20:09.153Z,102871.47
2022-10-18T11:22:55.773Z,102864.50
2022-10-18T11:25:25.582Z,102855.19
2022-10-18T11:28:03.756Z,102856.84
2022-10-18T11:30:50.502Z,102863.03
2022-10-18T11:33:56.242Z,102861.25
2022-10-18T11:36:31.217Z,102854.19
2022-10-18T11:39:06.526Z,102852.59
2022-10-18T11:41:43.781Z,102855.06
2022-10-18T11:44:24.352Z,102855.06
2022-10-18T11:46:50.632Z,102862.19
2022-10-18T11:49:44.894Z,102862.63
2022-10-18T11:52:33.158Z,102864.38
2022-10-18T11:55:13.848Z,102845.53
2022-10-18T11:57:50.086Z,102865.66
2022-10-18T12:00:32.667Z,102848.09
2022-10-18T12:02:59.051Z,102856.53
2022-10-18T12:05:26.659Z,102852.16
2022-10-18T12:08:13.059Z,102849.22
2022-10-18T12:10:53.108Z,102855.53
2022-10-18T12:13:32.317Z,102849.16
2022-10-18T12:16:00.633Z,102851.34
2022-10-18T12:18:27.885Z,102850.47
2022-10-18T12:20:59.217Z,102839.44
2022-10-18T12:23:52.698Z,102848.38
2022-10-18T12:26:20.415Z,102844.19
2022-10-18T12:29:00.419Z,102842.88
2022-10-18T12:31:34.626Z,102845.31
2022-10-18T12:34:09.202Z,102838.41
2022-10-18T12:36:59.745Z,102831.59
2022-10-18T12:39:43.376Z,102837.16
2022-10-18T12:42:20.619Z,102829.97
2022-10-18T12:44:47.615Z,102836.78
2022-10-18T12:47:25.222Z,102832.72
2022-10-18T12:50:00.256Z,102827.41
2022-10-18T12:52:29.178Z,102825.34
2022-10-18T12:55:29.613Z,102838.19
2022-10-18T12:57:58.948Z,102817.59
2022-10-18T13:00:31.497Z,102826.59
2022-10-18T13:03:10.235Z,102827.41
2022-10-18T13:05:53.325Z,102824.53
2022-10-18T13:08:29.010Z,102827.38
2022-10-18T13:11:01.268Z,102832.28
2022-10-18T13:13:40.086Z,102822.28
2022-10-18T13:16:22.281Z,102838.19
2022-10-18T13:19:10.906Z,102835.47
2022-10-18T13:21:59.007Z,102837.13
2022-10-18T13:24:45.487Z,102823.66
2022-10-18T13:27:35.076Z,102834.28
2022-10-18T13:30:22.869Z,102836.44
2022-10-18T13:33:11.154Z,102841.03
2022-10-18T13:35:56.724Z,102830.53
2022-10-18T13:39:01.222Z,102835.19
2022-10-18T13:41:34.549Z,102831.31
2022-10-18T13:44:01.916Z,102836.63
2022-10-18T13:46:34.515Z,102837.19
2022-10-18T13:49:19.014Z,102837.59
2022-10-18T13:52:06.806Z,102840.00
2022-10-18T13:55:10.886Z,102841.00
2022-10-18T13:57:55.912Z,102849.56
2022-10-18T14:00:51.537Z,102839.13
2022-10-18T14:03:55.771Z,102854.13
2022-10-18T14:06:25.451Z,102841.44
2022-10-18T14:09:19.321Z,102849.59
2022-10-18T14:11:56.727Z,102854.81
2022-10-18T14:14:45.937Z,102851.19
2022-10-18T14:17:31.273Z,102844.09
2022-10-18T14:20:13.818Z,102849.19
2022-10-18T14:23:27.612Z,102848.50
2022-10-18T14:26:06.885Z,102846.75
2022-10-18T14:28:55.047Z,102854.84
2022-10-18T14:31:20.066Z,102858.28
2022-10-18T14:33:57.080Z,102863.53
2022-10-18T14:36:27.226Z,102860.44
2022-10-18T14:38:59.580Z,102864.81
2022-10-18T14:41:28.628Z,102857.50
2022-10-18T14:44:16.617Z,102874.50
2022-10-18T14:46:46.289Z,102867.44
2022-10-18T14:49:14.576Z,102868.88
2022-10-18T14:51:43.305Z,102873.19
2022-10-18T14:54:39.230Z,102871.78
2022-10-18T14:57:07.128Z,102873.41
2022-10-18T14:59:55.109Z,102873.94
2022-10-18T15:02:26.685Z,102866.78
2022-10-18T15:04:59.743Z,102864.34
2022-10-18T15:07:27.082Z,102861.66
2022-10-18T15:09:53.551Z,102872.38
2022-10-18T15:12:20.270Z,102873.88
2022-10-18T15:14:47.702Z,102871.47
2022-10-18T15:17:20.435Z,102873.66
2022-10-18T15:20:18.377Z,102867.41
2022-10-18T15:22:45.282Z,102865.59
2022-10-18T15:25:13.861Z,102864.22
2022-10-18T15:30:22.757Z,102867.91
2022-10-18T15:32:52.142Z,102853.00
2022-10-18T15:35:26.556Z,102858.56
2022-10-18T15:37:54.816Z,102858.34
2022-10-18T15:40:24.152Z,102854.00
2022-10-18T15:42:55.701Z,102864.00
2022-10-18T15:45:31.128Z,102860.28
2022-10-18T15:48:01.355Z,102865.25
2022-10-18T15:50:38.384Z,102870.00
2022-10-18T15:53:22.797Z,102871.81
2022-10-18T15:55:55.789Z,102872.91
2022-10-18T15:58:26.558Z,102859.78
2022-10-18T16:00:57.398Z,102866.97
2022-10-18T16:03:23.968Z,102859.50
2022-10-18T16:05:55.727Z,102867.94
2022-10-18T16:08:24.805Z,102866.84
2022-10-18T16:10:51.362Z,102875.09
2022-10-18T16:13:18.491Z,102871.00
2022-10-18T16:15:44.846Z,102866.44
2022-10-18T16:18:16.738Z,102880.44
2022-10-18T16:20:43.950Z,102880.22
2022-10-18T16:23:22.795Z,102880.13
2022-10-18T16:25:50.021Z,102869.50
2022-10-18T16:28:19.877Z,102875.50
2022-10-18T16:30:53.149Z,102869.44
2022-10-18T16:33:21.563Z,102876.22
2022-10-18T16:35:48.426Z,102876.00
2022-10-18T16:38:29.895Z,102883.28
2022-10-18T16:40:59.099Z,102880.53
2022-10-18T16:43:25.584Z,102879.22
2022-10-18T16:45:53.768Z,102881.03
2022-10-18T16:48:23.127Z,102892.88
2022-10-18T16:50:50.285Z,102886.50
2022-10-18T16:53:16.914Z,102897.69
2022-10-18T16:55:43.596Z,102909.53
2022-10-18T16:58:16.756Z,102906.09
2022-10-18T17:00:44.131Z,102904.78
2022-10-18T17:03:10.443Z,102918.28
2022-10-18T17:05:36.772Z,102908.59
2022-10-18T17:08:03.188Z,102915.66
2022-10-18T17:10:29.498Z,102910.06
2022-10-18T17:12:55.812Z,102913.31
2022-10-18T17:15:22.179Z,102910.50
2022-10-18T17:17:48.704Z,102918.84
2022-10-18T17:20:24.003Z,102928.03
2022-10-18T17:22:50.395Z,102932.31
2022-10-18T17:25:17.803Z,102928.00
2022-10-18T17:27:44.951Z,102929.31
2022-10-18T17:30:12.932Z,102935.56
2022-10-18T17:32:39.337Z,102922.19
2022-10-18T17:35:06.204Z,102934.16
2022-10-18T17:37:32.823Z,102937.75
2022-10-18T17:39:59.336Z,102946.06
2022-10-18T17:42:25.649Z,102944.53
2022-10-18T17:44:54.276Z,102946.97
2022-10-18T17:47:23.357Z,102948.72
2022-10-18T17:49:49.691Z,102946.38
2022-10-18T17:52:16.121Z,102954.19
2022-10-18T17:54:42.411Z,102958.38
2022-10-18T17:57:08.731Z,102961.47
2022-10-18T17:59:35.088Z,102957.66
2022-10-18T18:02:01.398Z,102968.22
2022-10-18T18:04:27.705Z,102965.44
2022-10-18T18:06:54.009Z,102962.22
2022-10-18T18:09:20.434Z,102964.31
2022-10-18T18:11:46.806Z,102966.72
2022-10-18T18:14:13.269Z,102961.09
2022-10-18T18:16:42.545Z,102948.38
2022-10-18T18:19:10.284Z,102955.63
2022-10-18T18:21:37.130Z,102961.69
2022-10-18T18:24:03.737Z,102948.53
2022-10-18T18:26:34.600Z,102964.97
2022-10-18T18:31:37.755Z,102963.09
2022-10-18T18:34:09.402Z,102970.00
2022-10-18T18:36:35.982Z,102956.69
2022-10-18T18:39:03.061Z,102971.13
2022-10-18T18:41:29.361Z,102969.59
2022-10-18T18:43:59.653Z,102954.66
2022-10-18T18:46:28.787Z,102972.81
2022-10-18T18:48:57.467Z,102971.47
2022-10-18T18:51:23.835Z,102968.63
2022-10-18T18:53:51.017Z,102969.88
2022-10-18T18:56:23.126Z,102977.06
2022-10-18T18:58:49.637Z,102980.94
2022-10-18T19:01:18.792Z,102974.47
2022-10-18T19:03:47.981Z,102980.00
2022-10-18T19:06:36.613Z,102972.44
2022-10-18T19:09:05.837Z,102973.72
2022-10-18T19:11:35.126Z,102971.38
2022-10-18T19:14:02.365Z,102972.50
2022-10-18T19:16:33.189Z,102972.78
2022-10-18T19:19:10.264Z,102971.16
2022-10-18T19:21:48.066Z,102977.50
2022-10-18T19:24:14.876Z,102976.84
2022-10-18T19:26:59.270Z,102990.50
2022-10-18T19:29:29.682Z,102973.47
2022-10-18T19:31:59.168Z,102976.50
2022-10-18T19:34:27.597Z,102986.00
2022-10-18T19:36:54.880Z,102985.75
2022-10-18T19:39:27.226Z,102980.66
2022-10-18T19:41:55.710Z,102987.69
2022-10-18T19:44:23.717Z,102989.44
2022-10-18T19:46:50.531Z,102976.50
2022-10-18T19:49:17.261Z,102986.44
2022-10-18T19:51:44.140Z,102982.28
2022-10-18T19:54:14.334Z,102982.28
2022-10-18T19:56:41.145Z,102985.88
2022-10-18T19:59:08.335Z,102992.88
2022-10-18T20:01:34.833Z,102989.72
2022-10-18T20:04:01.334Z,102994.25
2022-10-18T20:06:27.642Z,102988.59
2022-10-18T20:08:53.969Z,103006.19
2022-10-18T20:11:23.504Z,103000.28
2022-10-18T20:13:50.268Z,102995.34
2022-10-18T20:16:20.126Z,102993.97
2022-10-18T20:18:48.714Z,102990.47
2022-10-18T20:21:16.848Z,102992.00
2022-10-18T20:23:44.273Z,102993.78
2022-10-18T20:26:18.034Z,102998.69
2022-10-18T20:28:50.586Z,102995.81
2022-10-18T20:31:19.046Z,102997.84
2022-10-18T20:33:46.836Z,103000.75
2022-10-18T20:36:15.767Z,103002.91
2022-10-18T20:38:44.637Z,102998.91
2022-10-18T20:41:14.256Z,103007.97
2022-10-18T20:43:40.963Z,102995.69
2022-10-18T20:46:07.813Z,103009.56
2022-10-18T20:48:35.066Z,103005.94
2022-10-18T20:51:09.989Z,103003.16
2022-10-18T20:53:37.470Z,103001.09
2022-10-18T20:56:08.579Z,102996.63
2022-10-18T20:58:35.980Z,103006.94
2022-10-18T21:01:11.237Z,102999.75
2022-10-18T21:03:38.691Z,103012.66
2022-10-18T21:06:18.659Z,103005.47
2022-10-18T21:08:45.800Z,103006.31
2022-10-18T21:11:13.739Z,103012.47
2022-10-18T21:13:40.253Z,103009.28
2022-10-18T21:16:06.958Z,103004.09
2022-10-18T21:18:35.169Z,102997.47
2022-10-18T21:21:09.888Z,103007.09
2022-10-18T21:23:36.724Z,102997.88
2022-10-18T21:26:03.175Z,102990.56
2022-10-18T21:28:29.609Z,102993.03
2022-10-18T21:30:55.921Z,102993.16
2022-10-18T21:33:22.154Z,102988.34
2022-10-18T21:35:48.506Z,102991.47
2022-10-18T21:38:14.818Z,102986.03
2022-10-18T21:40:41.094Z,102987.94
2022-10-18T21:43:07.414Z,102983.03
2022-10-18T21:45:33.700Z,102983.84
2022-10-18T21:47:59.934Z,102976.69
2022-10-18T21:50:26.253Z,102983.69
2022-10-18T21:52:52.494Z,102983.00
2022-10-18T21:55:18.810Z,102981.94
2022-10-18T21:57:45.078Z,102993.19
2022-10-18T22:00:12.219Z,103001.34
2022-10-18T22:02:38.611Z,102995.59
2022-10-18T22:05:08.281Z,102991.41
2022-10-18T22:07:37.799Z,102988.22
2022-10-18T22:10:04.500Z,102985.75
2022-10-18T22:12:30.909Z,102987.66
2022-10-18T22:14:57.890Z,102977.72
2022-10-18T22:17:24.273Z,102992.38
2022-10-18T22:19:50.665Z,102976.88
2022-10-18T22:22:17.021Z,102972.31
2022-10-18T22:24:43.333Z,102975.72
2022-10-18T22:27:09.561Z,102984.47
2022-10-18T22:29:35.912Z,102981.25
2022-10-18T22:32:02.262Z,102968.03
2022-10-18T22:34:28.546Z,102979.25
2022-10-18T22:36:55.440Z,102962.63
2022-10-18T22:39:22.017Z,102971.84
2022-10-18T22:41:48.337Z,102971.13
2022-10-18T22:44:14.871Z,102970.41
2022-10-18T22:46:41.974Z,102962.84
2022-10-18T22:49:08.587Z,102966.41
2022-10-18T22:54:06.450Z,102967.34
2022-10-18T22:56:32.843Z,102963.09
2022-10-18T22:58:59.190Z,102962.41
2022-10-18T23:01:25.450Z,102966.19
2022-10-18T23:03:56.670Z,102956.25
2022-10-18T23:06:28.873Z,102958.16
2022-10-18T23:08:57.368Z,102960.03
2022-10-18T23:11:25.394Z,102948.47
2022-10-18T23:13:51.993Z,102957.06
2022-10-18T23:16:19.171Z,102953.06
2022-10-18T23:18:50.046Z,102958.25
2022-10-18T23:21:16.397Z,102961.22
2022-10-18T23:23:43.096Z,102958.13
2022-10-18T23:26:14.624Z,102952.00
2022-10-18T23:28:42.994Z,102955.66
2022-10-18T23:31:14.874Z,102969.72
2022-10-18T23:33:41.696Z,102956.25
2022-10-18T23:36:08.925Z,102960.03
2022-10-18T23:38:36.741Z,102961.91
2022-10-18T23:41:03.849Z,102957.88
2022-10-18T23:43:30.306Z,102958.84
2022-10-18T23:45:56.717Z,102966.16
2022-10-18T23:48:23.125Z,102968.63
2022-10-18T23:50:49.628Z,102974.03
2022-10-18T23:53:16.342Z,102976.88
2022-10-18T23:56:10.803Z,102981.38
2022-10-18T23:58:38.209Z,102974.97
